AirNav   Everest Fuels
 
 324 users online  

CD02 Skyote Airport
Steamboat Springs, Colorado, USA

GOING TO STEAMBOAT SPRINGS?


FAA INFORMATION EFFECTIVE 12 SEPTEMBER 2019

Location

FAA Identifier: CD02
Lat/Long: 40-45-28.8970N 106-58-19.1860W
40-45.481617N 106-58.319767W
40.7580269,-106.9719961
(estimated)
Elevation: 8200 ft. / 2499 m (estimated)
Variation: 13E (1985)
From city: 18 miles NW of STEAMBOAT SPRINGS, CO
Time zone: UTC -6 (UTC -7 during Standard Time)
Zip code: 80487

Airport Operations

Airport use: Private use. Permission required prior to landing
Activation date: 02/1987
Control tower: no
ARTCC: DENVER CENTER
FSS: DENVER FLIGHT SERVICE STATION
Attendance: UNATNDD
Wind indicator: yes
Segmented circle: no

Airport Communications

WX AWOS-3 at SBS (15 nm S): 118.325 (970-879-7794)

Nearby radio navigation aids

VOR radial/distance  VOR name  Freq  Var
BQZr333/18.2ROBERT VOR/DME112.2013E
CHEr033/20.8HAYDEN VOR/DME115.6014E

Airport Services

Runway Information

Runway 18/36

Dimensions: 1600 x 30 ft. / 488 x 9 m
Surface: turf
RUNWAY 18  RUNWAY 36
Traffic pattern: leftleft

Airport Ownership and Management from official FAA records

Ownership: Privately-owned
Owner: O. E. BARTOE, JR.
PO BOX 808
CLARK, CO 80428
Phone (970) 214-9838
Manager: O. E. BARTOE, JR.
PO BOX 808
CLARK, CO 80428
Phone (970) 214-9838

Airport Operational Statistics

Aircraft based on the field: 1
Single engine airplanes: 1
    

Additional Remarks

ONE WAY ARPT. LAND RY 18 & TAKEOFF RY 36. LCL ARPT KNOWLEDGE RQRD.
FOR CD CTC DENVER ARTCC AT 303-651-4257.

Instrument Procedures

There are no published instrument procedures at CD02.

Some nearby airports with instrument procedures:

KSBS - Steamboat Springs Airport/Bob Adams Field (15 nm S)
KHDN - Yampa Valley Airport (20 nm SW)
KDWX - Dixon Airport (29 nm NW)
KCAG - Craig-Moffat Airport (30 nm SW)
33V - Walden-Jackson County Airport (32 nm E)
 
Loc | Ops | Rwys | IFR | FBO | Links
Com | Nav | Svcs | Stats | Notes

AirBoss

 
Area around CD02 (Skyote Airport)
 
Road maps at: MapQuest Bing Google
 
Aerial photo
No photo
 
Sectional chart

 
Airport distance calculator
Flying to Skyote Airport? Find the distance to fly.

From to CD02

Sunrise and sunset
Times for 17-Sep-2019
 Local
(UTC-6)
 Zulu
(UTC)
Morning civil twilight06:2412:24
Sunrise06:5112:51
Sunset19:1301:13
Evening civil twilight19:4101:41

Current date and time
Zulu (UTC)  17-Sep-2019 09:42:56
Local (UTC-6)  17-Sep-2019 03:42:56
 
METAR
KSBS 
15nm S 
170915Z AUTO 00000KT 10SM CLR 09/05 A3008 RMK AO1 T00850045
KHDN 
21nm SW 
170856Z AUTO 09006KT 10SM CLR 14/05 A3006 RMK AO2 SLP099 T01390050 58008
KDWX 
29nm NW 
170910Z AUTO 16018G25KT 10SM CLR 17/02 A3003 RMK AO2 T01660024
KCAG 
29nm SW 
170853Z AUTO VRB03KT 10SM CLR 12/06 A3002 RMK AO2 SLP091 T01220056 58008
TAF
KHDN 
21nm SW 
170527Z 1706/1806 08004KT P6SM OVC110 FM171200 11009KT P6SM VCSH FEW070 SCT250 FM171600 11009KT P6SM VCSH SCT070 BKN200 FM171800 25017G26KT P6SM VCSH SCT060 BKN100 FM180300 13005KT P6SM FEW120 BKN250
NOTAMs
Click for the latest NOTAMs
NOTAMs are issued by the DoD/FAA and will open in a separate window not controlled by AirNav.

 

 
 

Would you like to see your business listed on this page?

 If your business provides an interesting product or service to pilots, flight crews, aircraft, or users of the Skyote Airport, you should consider listing it here.  To start the listing process, click on the button below
 
Add a business
 

Other Pages about Skyote Airport

Update a link
 
Copyright © AirNav, LLC. All rights reserved. Privacy Policy  Contact